createdAt,value
2019-04-20T00:01:19.899Z,17.80
2019-04-20T00:03:48.478Z,15.87
2019-04-20T00:06:19.516Z,14.30
2019-04-20T00:08:58.113Z,15.53
2019-04-20T00:11:29.463Z,17.37
2019-04-20T00:14:02.881Z,20.40
2019-04-20T00:16:25.213Z,14.80
2019-04-20T00:18:58.328Z,14.13
2019-04-20T00:21:43.055Z,19.10
2019-04-20T00:24:27.545Z,24.27
2019-04-20T00:27:16.299Z,21.80
2019-04-20T00:29:45.418Z,13.93
2019-04-20T00:32:11.460Z,22.77
2019-04-20T00:34:34.829Z,16.83
2019-04-20T00:37:00.347Z,16.03
2019-04-20T00:39:30.103Z,15.03
2019-04-20T00:42:04.417Z,16.33
2019-04-20T00:44:35.899Z,14.93
2019-04-20T00:47:13.342Z,23.67
2019-04-20T00:49:50.657Z,12.93
2019-04-20T00:54:49.640Z,18.30
2019-04-20T00:57:30.509Z,18.07
2019-04-20T01:00:15.042Z,14.73
2019-04-20T01:02:39.781Z,12.80
2019-04-20T01:05:11.109Z,12.43
2019-04-20T01:07:45.524Z,13.63
2019-04-20T01:10:13.177Z,14.07
2019-04-20T01:12:44.472Z,13.77
2019-04-20T01:15:24.413Z,15.33
2019-04-20T01:17:47.789Z,13.90
2019-04-20T01:20:17.652Z,16.20
2019-04-20T01:22:55.407Z,17.73
2019-04-20T01:25:27.275Z,12.00
2019-04-20T01:28:07.716Z,16.10
2019-04-20T01:30:30.313Z,18.53
2019-04-20T01:33:08.872Z,18.20
2019-04-20T01:35:44.169Z,15.27
2019-04-20T01:38:16.964Z,14.53
2019-04-20T01:40:27.809Z,20.70
2019-04-20T01:42:57.524Z,15.47
2019-04-20T01:45:32.424Z,20.20
2019-04-20T01:48:01.272Z,17.27
2019-04-20T01:50:33.657Z,16.17
2019-04-20T01:53:14.933Z,18.77
2019-04-20T01:55:49.350Z,16.13
2019-04-20T01:58:30.211Z,18.47
2019-04-20T02:00:45.991Z,16.43
2019-04-20T02:03:40.364Z,17.83
2019-04-20T02:06:15.064Z,23.13
2019-04-20T02:08:42.131Z,17.57
2019-04-20T02:11:18.740Z,18.07
2019-04-20T02:13:49.842Z,14.97
2019-04-20T02:16:24.395Z,18.60
2019-04-20T02:19:05.235Z,16.77
2019-04-20T02:21:34.035Z,19.37
2019-04-20T02:23:55.549Z,19.23
2019-04-20T02:26:20.236Z,23.67
2019-04-20T02:32:06.657Z,17.60
2019-04-20T02:39:54.317Z,19.83
2019-04-20T02:42:20.075Z,24.63
2019-04-20T02:45:00.732Z,27.70
2019-04-20T02:47:21.391Z,30.67
2019-04-20T02:49:51.716Z,32.83
2019-04-20T02:52:28.902Z,25.97
2019-04-20T03:02:16.986Z,24.93
2019-04-20T03:04:37.150Z,25.60
2019-04-20T03:07:17.860Z,20.23
2019-04-20T03:09:50.142Z,22.57
2019-04-20T03:12:28.853Z,22.43
2019-04-20T03:14:50.249Z,19.90
2019-04-20T03:17:31.084Z,24.97
2019-04-20T03:19:47.601Z,22.67
2019-04-20T03:22:48.019Z,22.33
2019-04-20T03:25:06.923Z,17.43
2019-04-20T03:27:33.227Z,22.00
2019-04-20T03:30:22.755Z,26.60
2019-04-20T03:37:48.546Z,18.33
2019-04-20T03:40:08.348Z,17.07
2019-04-20T03:42:27.257Z,24.07
2019-04-20T03:45:04.111Z,29.43
2019-04-20T03:47:38.805Z,46.93
2019-04-20T03:50:24.430Z,34.10
2019-04-20T03:52:57.972Z,41.37
2019-04-20T03:55:26.416Z,29.40
2019-04-20T03:58:03.487Z,18.40
2019-04-20T04:00:37.594Z,16.80
2019-04-20T04:03:26.218Z,21.33
2019-04-20T04:05:55.959Z,22.40
2019-04-20T04:08:24.880Z,21.00
2019-04-20T04:11:06.637Z,19.07
2019-04-20T04:13:20.798Z,17.77
2019-04-20T04:15:57.600Z,32.83
2019-04-20T04:18:31.819Z,21.00
2019-04-20T04:21:12.625Z,23.33
2019-04-20T04:23:54.258Z,24.43
2019-04-20T04:28:53.219Z,25.37
2019-04-20T04:31:33.281Z,21.93
2019-04-20T04:34:12.233Z,27.00
2019-04-20T04:36:29.332Z,21.07
2019-04-20T04:39:10.810Z,30.37
2019-04-20T04:41:37.950Z,25.10
2019-04-20T04:44:03.093Z,23.17
2019-04-20T04:46:20.668Z,24.03
2019-04-20T04:48:52.867Z,20.13
2019-04-20T04:51:28.074Z,28.23
2019-04-20T04:54:02.943Z,22.50
2019-04-20T04:56:26.843Z,25.47
2019-04-20T04:58:56.232Z,26.97
2019-04-20T05:01:29.401Z,21.63
2019-04-20T05:06:44.514Z,23.17
2019-04-20T05:09:05.217Z,24.73
2019-04-20T05:11:34.960Z,19.20
2019-04-20T05:14:10.137Z,25.83
2019-04-20T05:16:49.996Z,30.23
2019-04-20T05:19:30.996Z,36.30
2019-04-20T05:22:19.394Z,35.70
2019-04-20T05:24:42.695Z,27.23
2019-04-20T05:27:30.141Z,20.20
2019-04-20T05:29:43.010Z,28.73
2019-04-20T05:32:18.043Z,29.53
2019-04-20T05:35:11.121Z,26.77
2019-04-20T05:37:41.324Z,36.97
2019-04-20T05:40:11.837Z,33.20
2019-04-20T05:42:42.979Z,37.93
2019-04-20T05:45:11.617Z,35.87
2019-04-20T05:47:45.499Z,38.57
2019-04-20T05:50:09.682Z,43.37
2019-04-20T05:55:21.012Z,34.37
2019-04-20T05:57:50.731Z,35.43
2019-04-20T06:00:32.137Z,42.13
2019-04-20T06:02:56.030Z,42.17
2019-04-20T06:05:28.905Z,45.00
2019-04-20T06:08:01.979Z,50.53
2019-04-20T06:10:31.806Z,46.77
2019-04-20T06:13:07.511Z,49.73
2019-04-20T06:15:42.733Z,45.63
2019-04-20T06:18:13.583Z,50.00
2019-04-20T06:20:48.503Z,50.53
2019-04-20T06:23:47.709Z,53.20
2019-04-20T06:28:49.019Z,50.83
2019-04-20T06:31:26.287Z,49.93
2019-04-20T06:34:30.384Z,54.20
2019-04-20T06:36:55.616Z,56.83
2019-04-20T06:42:15.218Z,59.50
2019-04-20T06:44:48.203Z,57.83
2019-04-20T06:49:40.618Z,54.80
2019-04-20T06:52:20.372Z,54.07
2019-04-20T06:55:02.826Z,62.23
2019-04-20T06:57:51.662Z,53.87
2019-04-20T07:00:14.148Z,55.57
2019-04-20T07:02:41.229Z,52.00
2019-04-20T07:05:12.797Z,52.67
2019-04-20T07:07:43.202Z,50.87
2019-04-20T07:10:19.887Z,50.90
2019-04-20T07:12:40.949Z,59.07
2019-04-20T07:15:16.250Z,53.73
2019-04-20T07:20:19.341Z,51.47
2019-04-20T07:23:03.565Z,49.90
2019-04-20T07:25:34.212Z,45.60
2019-04-20T07:27:59.483Z,43.27
2019-04-20T07:30:30.892Z,48.23
2019-04-20T07:33:04.195Z,46.80
2019-04-20T07:35:35.681Z,45.47
2019-04-20T07:38:23.455Z,53.93
2019-04-20T07:40:35.430Z,51.07
2019-04-20T07:43:02.521Z,47.57
2019-04-20T07:45:45.629Z,49.37
2019-04-20T07:50:37.610Z,43.50
2019-04-20T07:53:08.666Z,48.27
2019-04-20T07:56:05.056Z,37.13
2019-04-20T07:58:08.337Z,34.37
2019-04-20T08:00:59.962Z,40.80
2019-04-20T08:03:33.583Z,37.07
2019-04-20T08:05:52.707Z,42.43
2019-04-20T08:08:30.792Z,33.40
2019-04-20T08:11:05.909Z,29.97
2019-04-20T08:13:39.171Z,29.43
2019-04-20T08:16:07.292Z,31.73
2019-04-20T08:18:41.213Z,24.73
2019-04-20T08:21:09.847Z,30.33
2019-04-20T08:23:38.606Z,31.43
2019-04-20T08:26:02.574Z,28.13
2019-04-20T08:28:49.252Z,30.87
2019-04-20T08:31:32.273Z,25.37
2019-04-20T08:34:18.527Z,24.20
2019-04-20T08:36:55.689Z,29.95
2019-04-20T08:39:32.419Z,24.32
2019-04-20T08:41:57.528Z,26.93
2019-04-20T08:44:42.769Z,19.42
2019-04-20T08:47:06.840Z,12.95
2019-04-20T08:49:30.465Z,12.47
2019-04-20T08:52:05.966Z,13.18
2019-04-20T08:54:26.069Z,15.38
2019-04-20T08:56:46.164Z,19.00
2019-04-20T08:59:11.491Z,12.58
2019-04-20T09:01:42.713Z,20.15
2019-04-20T09:04:18.412Z,18.57
2019-04-20T09:06:58.555Z,11.73
2019-04-20T09:09:45.572Z,19.85
2019-04-20T09:12:11.934Z,18.75
2019-04-20T09:14:21.366Z,13.48
2019-04-20T09:16:59.745Z,6.78
2019-04-20T09:19:37.305Z,11.85
2019-04-20T09:22:24.346Z,18.70
2019-04-20T09:25:13.256Z,6.00
2019-04-20T09:27:26.588Z,6.15
2019-04-20T09:30:04.612Z,8.13
2019-04-20T09:32:37.088Z,10.40
2019-04-20T09:35:13.363Z,19.92
2019-04-20T09:37:47.324Z,9.15
2019-04-20T09:40:21.220Z,10.58
2019-04-20T09:42:46.719Z,8.13
2019-04-20T09:45:23.371Z,9.10
2019-04-20T09:47:51.896Z,8.13
2019-04-20T09:50:38.654Z,9.23
2019-04-20T09:53:10.176Z,9.55
2019-04-20T09:55:33.754Z,7.00
2019-04-20T09:58:08.214Z,10.23
2019-04-20T10:00:48.942Z,15.60
2019-04-20T10:03:00.727Z,8.90
2019-04-20T10:05:31.529Z,10.60
2019-04-20T10:08:04.948Z,12.43
2019-04-20T10:10:38.979Z,20.37
2019-04-20T10:13:06.031Z,15.65
2019-04-20T10:15:50.006Z,14.95
2019-04-20T10:18:21.862Z,13.15
2019-04-20T10:20:51.761Z,10.80
2019-04-20T10:23:22.720Z,13.10
2019-04-20T10:25:52.498Z,14.90
2019-04-20T10:28:23.385Z,14.87
2019-04-20T10:30:54.455Z,13.13
2019-04-20T10:33:25.702Z,15.43
2019-04-20T10:35:55.655Z,13.40
2019-04-20T10:38:27.871Z,14.00
2019-04-20T10:41:09.498Z,10.98
2019-04-20T10:43:30.178Z,8.80
2019-04-20T10:46:01.102Z,8.43
2019-04-20T10:48:32.031Z,7.47
2019-04-20T10:51:03.110Z,9.38
2019-04-20T10:53:33.034Z,12.55
2019-04-20T10:56:03.452Z,11.12
2019-04-20T10:58:33.736Z,15.10
2019-04-20T11:01:04.007Z,10.00
2019-04-20T11:03:34.572Z,11.95
2019-04-20T11:06:04.859Z,13.38
2019-04-20T11:08:34.931Z,11.10
2019-04-20T11:11:12.727Z,10.00
2019-04-20T11:13:37.446Z,10.08
2019-04-20T11:16:08.534Z,10.65
2019-04-20T11:18:39.792Z,13.22
2019-04-20T11:21:09.668Z,12.75
2019-04-20T11:23:40.411Z,10.80
2019-04-20T11:26:10.540Z,14.73
2019-04-20T11:28:40.344Z,10.58
2019-04-20T11:31:10.283Z,12.43
2019-04-20T11:33:40.405Z,13.25
2019-04-20T11:36:10.255Z,9.30
2019-04-20T11:38:40.814Z,13.05
2019-04-20T11:41:17.826Z,8.98
2019-04-20T11:43:42.099Z,9.80
2019-04-20T11:46:12.819Z,5.53
2019-04-20T11:48:43.501Z,5.97
2019-04-20T11:51:15.723Z,8.45
2019-04-20T11:53:46.019Z,11.22
2019-04-20T11:56:22.692Z,7.47
2019-04-20T11:58:47.328Z,9.73
2019-04-20T12:01:44.073Z,8.40
2019-04-20T12:04:20.035Z,6.23
2019-04-20T12:06:39.338Z,7.13
2019-04-20T12:09:10.890Z,10.17
2019-04-20T12:11:56.293Z,8.23
2019-04-20T12:14:14.466Z,8.13
2019-04-20T12:16:45.749Z,11.77
2019-04-20T12:19:15.653Z,8.07
2019-04-20T12:21:45.693Z,4.67
2019-04-20T12:24:16.385Z,10.07
2019-04-20T12:26:46.992Z,5.20
2019-04-20T12:29:16.849Z,5.30
2019-04-20T12:31:51.177Z,5.87
2019-04-20T12:34:18.201Z,4.70
2019-04-20T12:36:49.093Z,5.43
2019-04-20T12:39:19.326Z,4.00
2019-04-20T12:41:53.696Z,3.50
2019-04-20T12:44:21.896Z,2.30
2019-04-20T12:46:52.018Z,4.43
2019-04-20T12:49:23.311Z,4.50
2019-04-20T12:51:59.233Z,4.97
2019-04-20T12:54:24.862Z,4.77
2019-04-20T12:56:54.750Z,7.37
2019-04-20T12:59:25.543Z,5.03
2019-04-20T13:01:55.556Z,6.43
2019-04-20T13:04:26.729Z,2.77
2019-04-20T13:06:58.060Z,6.57
2019-04-20T13:09:30.736Z,3.30
2019-04-20T13:12:05.353Z,2.90
2019-04-20T13:14:42.231Z,2.33
2019-04-20T13:17:12.389Z,5.37
2019-04-20T13:19:42.244Z,2.97
2019-04-20T13:22:12.953Z,3.60
2019-04-20T13:24:45.131Z,7.93
2019-04-20T13:27:15.063Z,5.63
2019-04-20T13:29:47.883Z,8.67
2019-04-20T13:32:16.222Z,7.70
2019-04-20T13:34:46.587Z,6.50
2019-04-20T13:37:16.431Z,4.50
2019-04-20T13:39:46.856Z,4.60
2019-04-20T13:42:24.316Z,3.57
2019-04-20T13:44:50.778Z,5.67
2019-04-20T13:47:21.012Z,3.23
2019-04-20T13:49:51.186Z,3.43
2019-04-20T13:52:22.748Z,6.10
2019-04-20T13:54:53.925Z,4.10
2019-04-20T13:57:35.483Z,2.03
2019-04-20T14:00:24.171Z,10.10
2019-04-20T14:03:08.890Z,2.17
2019-04-20T14:05:38.873Z,2.77
2019-04-20T14:08:09.663Z,6.00
2019-04-20T14:10:39.696Z,6.10
2019-04-20T14:13:16.626Z,3.23
2019-04-20T14:15:42.815Z,2.03
2019-04-20T14:18:15.207Z,2.20
2019-04-20T14:20:45.223Z,6.00
2019-04-20T14:23:15.022Z,5.10
2019-04-20T14:25:46.971Z,6.77
2019-04-20T14:28:16.842Z,4.17
2019-04-20T14:30:47.762Z,11.73
2019-04-20T14:33:20.942Z,6.47
2019-04-20T14:35:50.826Z,7.77
2019-04-20T14:38:20.556Z,9.73
2019-04-20T14:40:50.416Z,10.40
2019-04-20T14:43:21.141Z,3.83
2019-04-20T14:45:52.473Z,4.80
2019-04-20T14:48:22.786Z,6.93
2019-04-20T14:50:53.787Z,6.33
2019-04-20T14:53:23.780Z,4.57
2019-04-20T14:55:53.923Z,7.40
2019-04-20T14:58:45.232Z,7.83
2019-04-20T15:01:30.334Z,7.90
2019-04-20T15:06:56.775Z,11.63
2019-04-20T15:09:26.789Z,5.73
2019-04-20T15:11:56.906Z,7.30
2019-04-20T15:14:28.937Z,9.70
2019-04-20T15:16:58.994Z,6.73
2019-04-20T15:19:31.668Z,4.80
2019-04-20T15:22:03.366Z,6.33
2019-04-20T15:24:33.584Z,6.50
2019-04-20T15:27:04.779Z,5.47
2019-04-20T15:29:36.004Z,6.63
2019-04-20T15:32:06.079Z,5.27
2019-04-20T15:34:36.976Z,5.07
2019-04-20T15:37:07.901Z,6.67
2019-04-20T15:39:38.910Z,8.50
2019-04-20T15:42:09.643Z,5.17
2019-04-20T15:44:39.746Z,7.87
2019-04-20T15:47:11.054Z,8.27
2019-04-20T15:49:42.027Z,7.70
2019-04-20T15:52:17.176Z,11.33
2019-04-20T15:54:45.434Z,5.67
2019-04-20T15:57:21.315Z,6.07
2019-04-20T15:59:48.605Z,5.33
2019-04-20T16:02:21.028Z,7.37
2019-04-20T16:05:01.426Z,6.20
2019-04-20T16:07:40.643Z,5.47
2019-04-20T16:10:03.319Z,7.10
2019-04-20T16:12:33.165Z,6.90
2019-04-20T16:15:11.359Z,4.50
2019-04-20T16:17:49.404Z,4.30
2019-04-20T16:20:20.135Z,8.70
2019-04-20T16:22:48.876Z,7.63
2019-04-20T16:25:37.317Z,7.37
2019-04-20T16:28:07.688Z,4.83
2019-04-20T16:30:38.026Z,4.73
2019-04-20T16:33:08.370Z,4.73
2019-04-20T16:35:38.409Z,4.93
2019-04-20T16:38:08.683Z,4.23
2019-04-20T16:40:38.538Z,6.07
2019-04-20T16:43:17.708Z,8.93
2019-04-20T16:45:39.658Z,9.00
2019-04-20T16:48:10.496Z,6.23
2019-04-20T16:50:40.775Z,6.07
2019-04-20T16:53:10.776Z,4.97
2019-04-20T16:55:40.969Z,5.53
2019-04-20T16:58:10.725Z,8.57
2019-04-20T17:00:41.216Z,12.17
2019-04-20T17:03:11.200Z,7.80
2019-04-20T17:05:41.247Z,7.10
2019-04-20T17:08:13.162Z,8.97
2019-04-20T17:10:43.000Z,10.90
2019-04-20T17:13:13.615Z,8.00
2019-04-20T17:15:45.644Z,10.80
2019-04-20T17:18:15.895Z,9.73
2019-04-20T17:20:46.442Z,15.60
2019-04-20T17:23:17.515Z,11.83
2019-04-20T17:25:48.055Z,9.60
2019-04-20T17:28:22.705Z,16.03
2019-04-20T17:30:59.214Z,17.17
2019-04-20T17:33:30.720Z,14.93
2019-04-20T17:36:08.458Z,15.20
2019-04-20T17:38:37.683Z,19.90
2019-04-20T17:43:56.977Z,14.60
2019-04-20T17:46:17.506Z,17.40
2019-04-20T17:48:58.794Z,21.97
2019-04-20T17:51:34.667Z,19.27
2019-04-20T17:53:52.753Z,17.80
2019-04-20T17:56:17.477Z,16.73
2019-04-20T17:58:48.038Z,16.70
2019-04-20T18:01:34.814Z,15.87
2019-04-20T18:04:27.311Z,16.77
2019-04-20T18:06:43.834Z,17.20
2019-04-20T18:09:11.569Z,15.37
2019-04-20T18:11:42.559Z,17.40
2019-04-20T18:14:24.168Z,13.63
2019-04-20T18:17:05.914Z,10.63
2019-04-20T18:19:31.228Z,8.10
2019-04-20T18:22:01.493Z,15.00
2019-04-20T18:24:59.311Z,8.27
2019-04-20T18:27:24.824Z,12.50
2019-04-20T18:29:51.305Z,12.43
2019-04-20T18:32:07.435Z,9.90
2019-04-20T18:34:40.266Z,15.43
2019-04-20T18:37:14.334Z,13.43
2019-04-20T18:39:50.577Z,14.47
2019-04-20T18:42:21.315Z,13.53
2019-04-20T18:45:04.115Z,18.70
2019-04-20T18:47:34.729Z,22.23
2019-04-20T18:49:59.557Z,18.87
2019-04-20T18:52:19.813Z,17.10
2019-04-20T18:54:52.003Z,21.97
2019-04-20T18:57:26.961Z,24.00
2019-04-20T18:59:54.783Z,20.20
2019-04-20T19:02:30.870Z,17.40
2019-04-20T19:04:59.925Z,23.47
2019-04-20T19:07:34.856Z,27.43
2019-04-20T19:10:12.927Z,20.23
2019-04-20T19:12:44.280Z,22.93
2019-04-20T19:15:37.334Z,17.43
2019-04-20T19:18:08.174Z,19.63
2019-04-20T19:20:32.918Z,26.50
2019-04-20T19:23:04.126Z,20.47
2019-04-20T19:25:37.435Z,20.60
2019-04-20T19:28:06.873Z,19.17
2019-04-20T19:30:44.974Z,20.90
2019-04-20T19:33:23.765Z,18.33
2019-04-20T19:35:51.746Z,19.67
2019-04-20T19:38:20.332Z,25.60
2019-04-20T19:40:50.899Z,27.60
2019-04-20T19:43:23.299Z,31.63
2019-04-20T19:46:29.682Z,39.40
2019-04-20T19:48:35.823Z,40.17
2019-04-20T19:51:11.609Z,33.73
2019-04-20T19:53:45.523Z,27.87
2019-04-20T19:56:06.290Z,29.63
2019-04-20T19:58:34.520Z,22.23
2019-04-20T20:00:59.437Z,24.03
2019-04-20T20:03:28.069Z,20.67
2019-04-20T20:05:59.577Z,30.23
2019-04-20T20:08:33.079Z,18.90
2019-04-20T20:11:03.038Z,18.70
2019-04-20T20:13:41.059Z,23.00
2019-04-20T20:16:10.486Z,21.00
2019-04-20T20:18:49.037Z,16.80
2019-04-20T20:21:21.907Z,18.97
2019-04-20T20:23:39.151Z,20.07
2019-04-20T20:26:18.290Z,24.53
2019-04-20T20:28:48.693Z,19.10
2019-04-20T20:31:23.531Z,17.93
2019-04-20T20:34:01.910Z,19.40
2019-04-20T20:36:19.347Z,17.53
2019-04-20T20:38:51.754Z,17.83
2019-04-20T20:41:27.638Z,18.40
2019-04-20T20:44:01.869Z,21.23
2019-04-20T20:46:30.653Z,19.93
2019-04-20T20:49:09.498Z,17.67
2019-04-20T20:52:02.539Z,20.47
2019-04-20T20:54:04.565Z,21.27
2019-04-20T20:56:35.177Z,18.00
2019-04-20T20:59:10.558Z,18.17
2019-04-20T21:01:42.830Z,18.80
2019-04-20T21:04:04.797Z,20.63
2019-04-20T21:06:34.884Z,18.17
2019-04-20T21:09:08.172Z,20.80
2019-04-20T21:11:40.152Z,23.43
2019-04-20T21:14:14.434Z,22.27
2019-04-20T21:16:55.909Z,23.00
2019-04-20T21:19:28.639Z,22.87
2019-04-20T21:21:54.796Z,23.30
2019-04-20T21:24:23.234Z,21.27
2019-04-20T21:26:53.827Z,28.57
2019-04-20T21:29:31.302Z,19.57
2019-04-20T21:32:01.631Z,22.30
2019-04-20T21:34:27.349Z,21.93
2019-04-20T21:37:07.090Z,22.30
2019-04-20T21:39:38.954Z,20.37
2019-04-20T21:42:05.401Z,21.23
2019-04-20T21:44:37.470Z,17.87
2019-04-20T21:47:03.444Z,18.77
2019-04-20T21:49:46.205Z,20.93
2019-04-20T21:52:15.988Z,19.33
2019-04-20T21:54:38.254Z,21.43
2019-04-20T21:57:11.175Z,21.33
2019-04-20T21:59:44.682Z,19.07
2019-04-20T22:02:19.464Z,21.03
2019-04-20T22:04:43.050Z,23.63
2019-04-20T22:07:14.313Z,30.67
2019-04-20T22:09:48.930Z,22.57
2019-04-20T22:12:15.982Z,27.27
2019-04-20T22:14:48.723Z,19.97
2019-04-20T22:17:23.603Z,29.13
2019-04-20T22:20:02.600Z,24.80
2019-04-20T22:22:41.100Z,21.97
2019-04-20T22:25:09.013Z,19.70
2019-04-20T22:27:30.095Z,19.63
2019-04-20T22:29:56.461Z,18.23
2019-04-20T22:32:28.188Z,21.63
2019-04-20T22:35:03.064Z,19.63
2019-04-20T22:37:35.329Z,21.00
2019-04-20T22:40:06.960Z,23.10
2019-04-20T22:42:44.991Z,19.80
2019-04-20T22:45:13.325Z,20.43
2019-04-20T22:47:40.870Z,18.17
2019-04-20T22:50:25.277Z,20.63
2019-04-20T22:52:55.663Z,23.07
2019-04-20T22:55:36.656Z,21.50
2019-04-20T22:57:58.530Z,20.80
2019-04-20T23:00:31.257Z,18.97
2019-04-20T23:02:50.903Z,17.97
2019-04-20T23:05:22.693Z,24.73
2019-04-20T23:07:52.725Z,17.87
2019-04-20T23:10:29.319Z,20.07
2019-04-20T23:12:57.827Z,21.67
2019-04-20T23:15:26.286Z,17.77
2019-04-20T23:17:56.301Z,15.80
2019-04-20T23:20:31.761Z,16.93
2019-04-20T23:22:58.824Z,21.73
2019-04-20T23:25:29.300Z,19.13
2019-04-20T23:28:08.094Z,19.37
2019-04-20T23:30:37.539Z,18.53
2019-04-20T23:33:04.167Z,16.43
2019-04-20T23:35:37.549Z,24.37
2019-04-20T23:38:11.079Z,24.53
2019-04-20T23:40:37.798Z,18.30
2019-04-20T23:43:17.751Z,18.77
2019-04-20T23:45:50.853Z,21.17
2019-04-20T23:48:34.833Z,20.53
2019-04-20T23:51:24.883Z,18.40
2019-04-20T23:53:49.188Z,18.00
2019-04-20T23:56:05.887Z,22.30
2019-04-20T23:58:43.013Z,23.03
